Airfield :
LOGIN :

Register | Disclaimer

   EN    FR    IT 

 










Legend :    VFR   Marginal VFR   IFR   Intensive IFR   Very Intensive IFR
Visi :
Ceiling :
>= 8 km
>= 3000ft
5 to 8 km
1000 to 3000 ft
1500m to 5 km
500 to 1000 ft
800 to 1500m
200 to 500 ft
< 800m
< 200 ft
Symbols :   Thunderstorms  Fog  Heavy snow  Heavy precipitations  Wind > 20 kt
SIGMETs :     Misc.  Thunderstorms  Icing  Turbulence  Mountain Waves  Volcanic Ashes







- Airport Elevation : 97 ft
- IATA code : EBJ


EKEB - Esbjerg

CURRENT METAR :
  • 181750Z AUTO 05007KT 9999NDV OVC021/// 06/04 Q1034

EXPIRED METARs :
  • 181720Z AUTO 06011KT 9999NDV OVC020/// 06/04 Q1034
  • 181650Z AUTO 05011KT 9999NDV OVC020/// 06/04 Q1034
  • 181620Z AUTO 05010KT 9999NDV BKN019/// 06/04 Q1034
  • 181550Z AUTO 05010KT 9999NDV OVC019/// 06/04 Q1034
  • 181520Z AUTO 04010KT 9999NDV OVC021/// 06/04 Q1034

TAF TAF EKEB
Valid from the 18 at 18:00 until the 18 at 23:00 UTC


181723Z 1818/1823 05006KT 9999 BKN018
No reported NOTAMs for that airfield.



MET'MAP, your aeronautical weather chart ! - Copyright ORBIFLY December 2007 - Disclaimer

ORBIFLY MET'MAP TEAM :

Programming & Development : Alexandra Zaïnal
Concept & Development : Baudouin d'Aumeries
Co-Development & Prog : Marc-Olivier Méhu
Technical & hardware support : Manuel Goepfert

Contact : metmap@orbifly.com




SOURCES & CREDITS :

   NOAA